sensor_id;sensor_type;location;lat;lon;timestamp;temperature;humidity
23405;DHT22;11875;49.356;2.718;2023-03-04T00:00:55;2.90;99.90
23405;DHT22;11875;49.356;2.718;2023-03-04T00:03:20;2.80;99.90
23405;DHT22;11875;49.356;2.718;2023-03-04T00:05:46;2.80;99.90
23405;DHT22;11875;49.356;2.718;2023-03-04T00:08:12;2.80;99.90
23405;DHT22;11875;49.356;2.718;2023-03-04T00:10:37;2.70;99.90
23405;DHT22;11875;49.356;2.718;2023-03-04T00:13:03;2.70;99.90
23405;DHT22;11875;49.356;2.718;2023-03-04T00:15:29;2.60;99.90
23405;DHT22;11875;49.356;2.718;2023-03-04T00:17:55;2.60;99.90
23405;DHT22;11875;49.356;2.718;2023-03-04T00:20:20;2.60;99.90
23405;DHT22;11875;49.356;2.718;2023-03-04T00:22:46;2.60;99.90
23405;DHT22;11875;49.356;2.718;2023-03-04T00:25:11;2.50;99.90
23405;DHT22;11875;49.356;2.718;2023-03-04T00:27:37;2.40;99.90
23405;DHT22;11875;49.356;2.718;2023-03-04T00:30:04;2.30;99.90
23405;DHT22;11875;49.356;2.718;2023-03-04T00:32:30;2.30;99.90
23405;DHT22;11875;49.356;2.718;2023-03-04T00:34:56;2.40;99.90
23405;DHT22;11875;49.356;2.718;2023-03-04T00:37:22;2.40;99.90
23405;DHT22;11875;49.356;2.718;2023-03-04T00:39:47;2.40;99.90
23405;DHT22;11875;49.356;2.718;2023-03-04T00:42:13;2.30;99.90
23405;DHT22;11875;49.356;2.718;2023-03-04T00:44:38;2.30;99.90
23405;DHT22;11875;49.356;2.718;2023-03-04T00:47:04;2.40;99.90
23405;DHT22;11875;49.356;2.718;2023-03-04T00:49:29;2.40;99.90
23405;DHT22;11875;49.356;2.718;2023-03-04T00:51:55;2.40;99.90
23405;DHT22;11875;49.356;2.718;2023-03-04T00:54:21;2.40;99.90
23405;DHT22;11875;49.356;2.718;2023-03-04T00:56:46;2.20;99.90
23405;DHT22;11875;49.356;2.718;2023-03-04T00:59:12;2.20;99.90
23405;DHT22;11875;49.356;2.718;2023-03-04T01:01:37;2.10;99.90
23405;DHT22;11875;49.356;2.718;2023-03-04T01:04:03;2.20;99.90
23405;DHT22;11875;49.356;2.718;2023-03-04T01:06:29;2.20;99.90
23405;DHT22;11875;49.356;2.718;2023-03-04T01:08:54;2.20;99.90
23405;DHT22;11875;49.356;2.718;2023-03-04T01:11:20;2.20;99.90
23405;DHT22;11875;49.356;2.718;2023-03-04T01:13:46;2.30;99.90
23405;DHT22;11875;49.356;2.718;2023-03-04T01:16:12;2.30;99.90
23405;DHT22;11875;49.356;2.718;2023-03-04T01:18:38;2.40;99.90
23405;DHT22;11875;49.356;2.718;2023-03-04T01:21:04;2.30;99.90
23405;DHT22;11875;49.356;2.718;2023-03-04T01:23:30;2.40;99.90
23405;DHT22;11875;49.356;2.718;2023-03-04T01:25:56;2.30;99.90
23405;DHT22;11875;49.356;2.718;2023-03-04T01:28:21;2.30;99.90
23405;DHT22;11875;49.356;2.718;2023-03-04T01:30:47;2.40;99.90
23405;DHT22;11875;49.356;2.718;2023-03-04T01:33:13;2.40;99.90
23405;DHT22;11875;49.356;2.718;2023-03-04T01:35:38;2.40;99.90
23405;DHT22;11875;49.356;2.718;2023-03-04T01:38:04;2.40;99.90
23405;DHT22;11875;49.356;2.718;2023-03-04T01:40:30;2.40;99.90
23405;DHT22;11875;49.356;2.718;2023-03-04T01:42:56;2.50;99.90
23405;DHT22;11875;49.356;2.718;2023-03-04T01:45:22;2.50;99.90
23405;DHT22;11875;49.356;2.718;2023-03-04T01:47:48;2.40;99.90
23405;DHT22;11875;49.356;2.718;2023-03-04T01:52:45;2.40;99.90
23405;DHT22;11875;49.356;2.718;2023-03-04T01:55:15;2.40;99.90
23405;DHT22;11875;49.356;2.718;2023-03-04T01:57:41;2.40;99.90
23405;DHT22;11875;49.356;2.718;2023-03-04T02:00:32;2.30;99.90
23405;DHT22;11875;49.356;2.718;2023-03-04T02:03:01;2.10;99.90
23405;DHT22;11875;49.356;2.718;2023-03-04T02:05:29;2.40;99.90
23405;DHT22;11875;49.356;2.718;2023-03-04T02:07:56;2.20;99.90
23405;DHT22;11875;49.356;2.718;2023-03-04T02:10:22;2.10;99.90
23405;DHT22;11875;49.356;2.718;2023-03-04T02:12:48;1.90;99.90
23405;DHT22;11875;49.356;2.718;2023-03-04T02:15:15;1.70;99.90
23405;DHT22;11875;49.356;2.718;2023-03-04T02:17:41;1.50;99.90
23405;DHT22;11875;49.356;2.718;2023-03-04T02:26:21;1.30;99.90
23405;DHT22;11875;49.356;2.718;2023-03-04T02:28:27;1.40;99.90
23405;DHT22;11875;49.356;2.718;2023-03-04T02:30:53;1.50;99.90
23405;DHT22;11875;49.356;2.718;2023-03-04T02:33:19;1.50;99.90
23405;DHT22;11875;49.356;2.718;2023-03-04T02:35:45;1.30;99.90
23405;DHT22;11875;49.356;2.718;2023-03-04T02:38:11;1.50;99.90
23405;DHT22;11875;49.356;2.718;2023-03-04T02:40:38;1.50;99.90
23405;DHT22;11875;49.356;2.718;2023-03-04T02:43:05;1.50;99.90
23405;DHT22;11875;49.356;2.718;2023-03-04T02:45:42;1.50;99.90
23405;DHT22;11875;49.356;2.718;2023-03-04T02:48:09;1.50;99.90
23405;DHT22;11875;49.356;2.718;2023-03-04T02:50:47;1.50;99.90
23405;DHT22;11875;49.356;2.718;2023-03-04T02:53:14;1.50;99.90
23405;DHT22;11875;49.356;2.718;2023-03-04T02:55:40;1.50;99.90
23405;DHT22;11875;49.356;2.718;2023-03-04T02:58:08;1.50;99.90
23405;DHT22;11875;49.356;2.718;2023-03-04T03:00:34;1.60;99.90
23405;DHT22;11875;49.356;2.718;2023-03-04T03:02:59;1.60;99.90
23405;DHT22;11875;49.356;2.718;2023-03-04T03:05:26;2.70;99.90
23405;DHT22;11875;49.356;2.718;2023-03-04T03:07:54;1.60;99.90
23405;DHT22;11875;49.356;2.718;2023-03-04T03:10:20;1.50;99.90
23405;DHT22;11875;49.356;2.718;2023-03-04T03:12:46;1.50;99.90
23405;DHT22;11875;49.356;2.718;2023-03-04T03:15:12;1.50;99.90
23405;DHT22;11875;49.356;2.718;2023-03-04T03:17:38;1.30;99.90
23405;DHT22;11875;49.356;2.718;2023-03-04T03:20:04;1.90;99.90
23405;DHT22;11875;49.356;2.718;2023-03-04T03:22:29;1.30;99.90
23405;DHT22;11875;49.356;2.718;2023-03-04T03:24:55;1.40;99.90
23405;DHT22;11875;49.356;2.718;2023-03-04T03:27:21;1.40;99.90
23405;DHT22;11875;49.356;2.718;2023-03-04T03:29:46;1.40;99.90
23405;DHT22;11875;49.356;2.718;2023-03-04T03:32:12;1.20;99.90
23405;DHT22;11875;49.356;2.718;2023-03-04T03:34:37;2.00;99.90
23405;DHT22;11875;49.356;2.718;2023-03-04T03:37:03;1.20;99.90
23405;DHT22;11875;49.356;2.718;2023-03-04T03:39:29;1.20;99.90
23405;DHT22;11875;49.356;2.718;2023-03-04T03:41:54;1.20;99.90
23405;DHT22;11875;49.356;2.718;2023-03-04T03:44:20;1.20;99.90
23405;DHT22;11875;49.356;2.718;2023-03-04T03:46:45;1.20;99.90
23405;DHT22;11875;49.356;2.718;2023-03-04T03:49:11;1.20;99.90
23405;DHT22;11875;49.356;2.718;2023-03-04T03:51:37;1.20;99.90
23405;DHT22;11875;49.356;2.718;2023-03-04T03:54:03;1.30;99.90
23405;DHT22;11875;49.356;2.718;2023-03-04T03:56:29;1.30;99.90
23405;DHT22;11875;49.356;2.718;2023-03-04T03:58:54;1.30;99.90
23405;DHT22;11875;49.356;2.718;2023-03-04T04:01:20;1.30;99.90
23405;DHT22;11875;49.356;2.718;2023-03-04T04:03:46;1.40;99.90
23405;DHT22;11875;49.356;2.718;2023-03-04T04:06:11;1.40;99.90
23405;DHT22;11875;49.356;2.718;2023-03-04T04:08:37;1.30;99.90
23405;DHT22;11875;49.356;2.718;2023-03-04T04:11:03;1.30;99.90
23405;DHT22;11875;49.356;2.718;2023-03-04T04:13:29;1.30;99.90
23405;DHT22;11875;49.356;2.718;2023-03-04T04:15:54;1.30;99.90
23405;DHT22;11875;49.356;2.718;2023-03-04T04:18:20;1.30;99.90
23405;DHT22;11875;49.356;2.718;2023-03-04T04:20:46;1.40;99.90
23405;DHT22;11875;49.356;2.718;2023-03-04T04:23:11;1.30;99.90
23405;DHT22;11875;49.356;2.718;2023-03-04T04:25:37;1.30;99.90
23405;DHT22;11875;49.356;2.718;2023-03-04T04:28:02;1.30;99.90
23405;DHT22;11875;49.356;2.718;2023-03-04T04:30:28;1.30;99.90
23405;DHT22;11875;49.356;2.718;2023-03-04T04:32:54;1.30;99.90
23405;DHT22;11875;49.356;2.718;2023-03-04T04:35:19;1.30;99.90
23405;DHT22;11875;49.356;2.718;2023-03-04T04:37:45;1.30;99.90
23405;DHT22;11875;49.356;2.718;2023-03-04T04:40:11;1.20;99.90
23405;DHT22;11875;49.356;2.718;2023-03-04T04:42:37;1.20;99.90
23405;DHT22;11875;49.356;2.718;2023-03-04T04:45:02;1.20;99.90
23405;DHT22;11875;49.356;2.718;2023-03-04T04:47:28;1.10;99.90
23405;DHT22;11875;49.356;2.718;2023-03-04T04:49:54;1.00;99.90
23405;DHT22;11875;49.356;2.718;2023-03-04T04:52:19;1.00;99.90
23405;DHT22;11875;49.356;2.718;2023-03-04T04:54:45;0.90;99.90
23405;DHT22;11875;49.356;2.718;2023-03-04T04:57:11;0.90;99.90
23405;DHT22;11875;49.356;2.718;2023-03-04T04:59:36;1.00;99.90
23405;DHT22;11875;49.356;2.718;2023-03-04T05:02:02;1.00;99.90
23405;DHT22;11875;49.356;2.718;2023-03-04T05:04:27;0.90;99.90
23405;DHT22;11875;49.356;2.718;2023-03-04T05:06:53;0.90;99.90
23405;DHT22;11875;49.356;2.718;2023-03-04T05:09:19;0.90;99.90
23405;DHT22;11875;49.356;2.718;2023-03-04T05:11:47;0.90;99.90
23405;DHT22;11875;49.356;2.718;2023-03-04T05:14:13;0.90;99.90
23405;DHT22;11875;49.356;2.718;2023-03-04T05:16:38;0.80;99.90
23405;DHT22;11875;49.356;2.718;2023-03-04T05:19:04;0.80;99.90
23405;DHT22;11875;49.356;2.718;2023-03-04T05:21:29;0.90;99.90
23405;DHT22;11875;49.356;2.718;2023-03-04T05:23:55;0.90;99.90
23405;DHT22;11875;49.356;2.718;2023-03-04T05:26:21;0.90;99.90
23405;DHT22;11875;49.356;2.718;2023-03-04T05:28:46;0.90;99.90
23405;DHT22;11875;49.356;2.718;2023-03-04T05:31:12;0.90;99.90
23405;DHT22;11875;49.356;2.718;2023-03-04T05:33:38;0.90;99.90
23405;DHT22;11875;49.356;2.718;2023-03-04T05:36:05;0.80;99.90
23405;DHT22;11875;49.356;2.718;2023-03-04T05:38:31;0.90;99.90
23405;DHT22;11875;49.356;2.718;2023-03-04T05:40:59;0.90;99.90
23405;DHT22;11875;49.356;2.718;2023-03-04T05:43:26;0.90;99.90
23405;DHT22;11875;49.356;2.718;2023-03-04T05:45:52;0.80;99.90
23405;DHT22;11875;49.356;2.718;2023-03-04T05:48:18;0.80;99.90
23405;DHT22;11875;49.356;2.718;2023-03-04T05:50:44;0.90;99.90
23405;DHT22;11875;49.356;2.718;2023-03-04T05:53:09;0.50;99.90
23405;DHT22;11875;49.356;2.718;2023-03-04T05:55:35;0.90;99.90
23405;DHT22;11875;49.356;2.718;2023-03-04T05:58:00;0.90;99.90
23405;DHT22;11875;49.356;2.718;2023-03-04T06:00:26;1.00;99.90
23405;DHT22;11875;49.356;2.718;2023-03-04T06:02:52;1.00;99.90
23405;DHT22;11875;49.356;2.718;2023-03-04T06:05:18;1.00;99.90
23405;DHT22;11875;49.356;2.718;2023-03-04T06:07:44;1.00;99.90
23405;DHT22;11875;49.356;2.718;2023-03-04T06:10:12;1.10;99.90
23405;DHT22;11875;49.356;2.718;2023-03-04T06:12:38;1.10;99.90
23405;DHT22;11875;49.356;2.718;2023-03-04T06:15:04;1.20;99.90
23405;DHT22;11875;49.356;2.718;2023-03-04T06:17:30;1.30;99.90
23405;DHT22;11875;49.356;2.718;2023-03-04T06:19:56;1.30;99.90
23405;DHT22;11875;49.356;2.718;2023-03-04T06:22:21;1.30;99.90
23405;DHT22;11875;49.356;2.718;2023-03-04T06:24:47;1.30;99.90
23405;DHT22;11875;49.356;2.718;2023-03-04T06:27:13;1.20;99.90
23405;DHT22;11875;49.356;2.718;2023-03-04T06:29:38;1.30;99.90
23405;DHT22;11875;49.356;2.718;2023-03-04T06:32:04;1.30;99.90
23405;DHT22;11875;49.356;2.718;2023-03-04T06:34:31;1.40;99.90
23405;DHT22;11875;49.356;2.718;2023-03-04T06:36:58;1.40;99.90
23405;DHT22;11875;49.356;2.718;2023-03-04T06:39:23;1.40;99.90
23405;DHT22;11875;49.356;2.718;2023-03-04T06:41:49;1.30;99.90
23405;DHT22;11875;49.356;2.718;2023-03-04T06:44:15;1.30;99.90
23405;DHT22;11875;49.356;2.718;2023-03-04T06:46:40;1.20;99.90
23405;DHT22;11875;49.356;2.718;2023-03-04T06:49:06;1.20;99.90
23405;DHT22;11875;49.356;2.718;2023-03-04T06:51:31;1.30;99.90
23405;DHT22;11875;49.356;2.718;2023-03-04T06:53:57;1.30;99.90
23405;DHT22;11875;49.356;2.718;2023-03-04T06:56:24;1.40;99.90
23405;DHT22;11875;49.356;2.718;2023-03-04T06:58:50;1.40;99.90
23405;DHT22;11875;49.356;2.718;2023-03-04T07:01:23;1.50;99.90
23405;DHT22;11875;49.356;2.718;2023-03-04T07:03:50;1.40;99.90
23405;DHT22;11875;49.356;2.718;2023-03-04T07:06:20;1.40;99.90
23405;DHT22;11875;49.356;2.718;2023-03-04T07:08:46;1.40;99.90
23405;DHT22;11875;49.356;2.718;2023-03-04T07:11:13;1.40;99.90
23405;DHT22;11875;49.356;2.718;2023-03-04T07:13:38;1.60;99.90
23405;DHT22;11875;49.356;2.718;2023-03-04T07:16:06;1.70;99.90
23405;DHT22;11875;49.356;2.718;2023-03-04T07:18:31;1.70;99.90
23405;DHT22;11875;49.356;2.718;2023-03-04T07:20:57;1.80;99.90
23405;DHT22;11875;49.356;2.718;2023-03-04T07:23:23;2.00;99.90
23405;DHT22;11875;49.356;2.718;2023-03-04T07:25:49;2.00;99.90
23405;DHT22;11875;49.356;2.718;2023-03-04T07:28:15;2.10;99.90
23405;DHT22;11875;49.356;2.718;2023-03-04T07:30:41;2.40;99.90
23405;DHT22;11875;49.356;2.718;2023-03-04T07:33:06;2.10;99.90
23405;DHT22;11875;49.356;2.718;2023-03-04T07:35:32;2.10;99.90
23405;DHT22;11875;49.356;2.718;2023-03-04T07:37:58;2.10;99.90
23405;DHT22;11875;49.356;2.718;2023-03-04T07:40:23;2.10;99.90
23405;DHT22;11875;49.356;2.718;2023-03-04T07:42:53;2.20;99.90
23405;DHT22;11875;49.356;2.718;2023-03-04T07:45:20;2.30;99.90
23405;DHT22;11875;49.356;2.718;2023-03-04T07:47:46;2.40;99.90
23405;DHT22;11875;49.356;2.718;2023-03-04T07:50:13;2.40;99.90
23405;DHT22;11875;49.356;2.718;2023-03-04T07:52:40;2.40;99.90
23405;DHT22;11875;49.356;2.718;2023-03-04T07:55:06;2.50;99.90
23405;DHT22;11875;49.356;2.718;2023-03-04T07:57:32;2.50;99.90
23405;DHT22;11875;49.356;2.718;2023-03-04T07:59:58;3.20;99.90
23405;DHT22;11875;49.356;2.718;2023-03-04T08:02:23;2.60;99.90
23405;DHT22;11875;49.356;2.718;2023-03-04T08:04:49;2.70;99.90
23405;DHT22;11875;49.356;2.718;2023-03-04T08:07:14;2.70;99.90
23405;DHT22;11875;49.356;2.718;2023-03-04T08:09:40;2.80;99.90
23405;DHT22;11875;49.356;2.718;2023-03-04T08:12:06;2.90;99.90
23405;DHT22;11875;49.356;2.718;2023-03-04T08:14:31;3.00;99.90
23405;DHT22;11875;49.356;2.718;2023-03-04T08:16:58;3.00;99.90
23405;DHT22;11875;49.356;2.718;2023-03-04T08:19:24;3.00;99.90
23405;DHT22;11875;49.356;2.718;2023-03-04T08:21:49;3.10;99.90
23405;DHT22;11875;49.356;2.718;2023-03-04T08:24:15;3.10;99.90
23405;DHT22;11875;49.356;2.718;2023-03-04T08:26:44;3.10;99.90
23405;DHT22;11875;49.356;2.718;2023-03-04T08:29:16;3.20;99.90
23405;DHT22;11875;49.356;2.718;2023-03-04T08:31:42;3.20;99.90
23405;DHT22;11875;49.356;2.718;2023-03-04T08:34:11;3.30;99.90
23405;DHT22;11875;49.356;2.718;2023-03-04T08:36:37;3.30;99.90
23405;DHT22;11875;49.356;2.718;2023-03-04T08:39:04;3.30;99.90
23405;DHT22;11875;49.356;2.718;2023-03-04T08:41:30;3.30;99.90
23405;DHT22;11875;49.356;2.718;2023-03-04T08:43:55;3.30;99.90
23405;DHT22;11875;49.356;2.718;2023-03-04T08:46:21;3.30;99.90
23405;DHT22;11875;49.356;2.718;2023-03-04T08:48:46;3.40;99.90
23405;DHT22;11875;49.356;2.718;2023-03-04T08:51:13;3.50;99.90
23405;DHT22;11875;49.356;2.718;2023-03-04T08:53:40;3.60;99.90
23405;DHT22;11875;49.356;2.718;2023-03-04T08:56:06;3.60;99.90
23405;DHT22;11875;49.356;2.718;2023-03-04T08:58:32;3.70;99.90
23405;DHT22;11875;49.356;2.718;2023-03-04T09:00:59;3.70;99.90
23405;DHT22;11875;49.356;2.718;2023-03-04T09:03:25;3.70;99.90
23405;DHT22;11875;49.356;2.718;2023-03-04T09:05:51;3.70;99.90
23405;DHT22;11875;49.356;2.718;2023-03-04T09:08:17;3.80;99.90
23405;DHT22;11875;49.356;2.718;2023-03-04T09:10:44;3.70;99.90
23405;DHT22;11875;49.356;2.718;2023-03-04T09:13:10;3.70;99.90
23405;DHT22;11875;49.356;2.718;2023-03-04T09:15:37;3.80;99.90
23405;DHT22;11875;49.356;2.718;2023-03-04T09:18:03;3.80;99.90
23405;DHT22;11875;49.356;2.718;2023-03-04T09:20:30;3.80;99.90
23405;DHT22;11875;49.356;2.718;2023-03-04T09:22:56;3.80;99.90
23405;DHT22;11875;49.356;2.718;2023-03-04T09:25:22;3.70;99.90
23405;DHT22;11875;49.356;2.718;2023-03-04T09:27:47;3.70;99.90
23405;DHT22;11875;49.356;2.718;2023-03-04T09:30:13;3.80;99.90
23405;DHT22;11875;49.356;2.718;2023-03-04T09:32:39;3.90;99.90
23405;DHT22;11875;49.356;2.718;2023-03-04T09:35:06;3.90;99.90
23405;DHT22;11875;49.356;2.718;2023-03-04T09:37:32;4.00;99.90
23405;DHT22;11875;49.356;2.718;2023-03-04T09:39:58;4.10;99.90
23405;DHT22;11875;49.356;2.718;2023-03-04T09:42:32;4.20;99.90
23405;DHT22;11875;49.356;2.718;2023-03-04T09:44:59;4.30;99.90
23405;DHT22;11875;49.356;2.718;2023-03-04T09:47:26;4.30;99.90
23405;DHT22;11875;49.356;2.718;2023-03-04T09:49:56;4.40;99.90
23405;DHT22;11875;49.356;2.718;2023-03-04T09:54:54;4.50;99.90
23405;DHT22;11875;49.356;2.718;2023-03-04T10:00:15;4.70;99.90
23405;DHT22;11875;49.356;2.718;2023-03-04T10:03:04;4.80;99.90
23405;DHT22;11875;49.356;2.718;2023-03-04T10:05:34;4.90;99.90
23405;DHT22;11875;49.356;2.718;2023-03-04T10:08:30;5.10;99.90
23405;DHT22;11875;49.356;2.718;2023-03-04T10:10:59;5.20;99.90
23405;DHT22;11875;49.356;2.718;2023-03-04T10:13:42;5.20;99.90
23405;DHT22;11875;49.356;2.718;2023-03-04T10:16:15;5.20;99.90
23405;DHT22;11875;49.356;2.718;2023-03-04T10:18:55;5.30;99.90
23405;DHT22;11875;49.356;2.718;2023-03-04T10:21:43;5.40;99.90
23405;DHT22;11875;49.356;2.718;2023-03-04T10:24:18;5.50;99.90
23405;DHT22;11875;49.356;2.718;2023-03-04T10:26:47;5.50;99.90
23405;DHT22;11875;49.356;2.718;2023-03-04T10:29:20;5.50;99.90
23405;DHT22;11875;49.356;2.718;2023-03-04T10:31:46;5.70;99.90
23405;DHT22;11875;49.356;2.718;2023-03-04T10:34:14;5.80;99.90
23405;DHT22;11875;49.356;2.718;2023-03-04T10:36:46;5.80;99.90
23405;DHT22;11875;49.356;2.718;2023-03-04T10:39:35;5.90;99.90
23405;DHT22;11875;49.356;2.718;2023-03-04T10:42:21;5.90;99.90
23405;DHT22;11875;49.356;2.718;2023-03-04T10:44:55;6.00;99.90
23405;DHT22;11875;49.356;2.718;2023-03-04T10:47:26;6.10;99.90
23405;DHT22;11875;49.356;2.718;2023-03-04T10:49:55;6.20;99.90
23405;DHT22;11875;49.356;2.718;2023-03-04T10:55:00;6.60;99.90
23405;DHT22;11875;49.356;2.718;2023-03-04T10:57:38;6.70;99.90
23405;DHT22;11875;49.356;2.718;2023-03-04T11:02:43;6.80;99.90
23405;DHT22;11875;49.356;2.718;2023-03-04T11:05:19;6.80;99.90
23405;DHT22;11875;49.356;2.718;2023-03-04T11:12:58;7.20;99.90
23405;DHT22;11875;49.356;2.718;2023-03-04T11:15:26;7.20;99.90
23405;DHT22;11875;49.356;2.718;2023-03-04T11:17:59;7.20;99.90
23405;DHT22;11875;49.356;2.718;2023-03-04T11:20:35;7.20;99.90
23405;DHT22;11875;49.356;2.718;2023-03-04T11:23:11;7.20;99.90
23405;DHT22;11875;49.356;2.718;2023-03-04T11:25:49;7.20;99.90
23405;DHT22;11875;49.356;2.718;2023-03-04T11:28:26;7.30;99.90
23405;DHT22;11875;49.356;2.718;2023-03-04T11:30:58;7.40;99.90
23405;DHT22;11875;49.356;2.718;2023-03-04T11:36:17;7.30;99.90
23405;DHT22;11875;49.356;2.718;2023-03-04T11:38:50;7.30;99.90
23405;DHT22;11875;49.356;2.718;2023-03-04T11:41:35;7.40;99.90
23405;DHT22;11875;49.356;2.718;2023-03-04T11:44:07;7.50;99.90
23405;DHT22;11875;49.356;2.718;2023-03-04T11:46:51;7.60;99.90
23405;DHT22;11875;49.356;2.718;2023-03-04T12:15:00;7.70;99.90
23405;DHT22;11875;49.356;2.718;2023-03-04T12:24:13;7.80;99.90
23405;DHT22;11875;49.356;2.718;2023-03-04T12:29:28;7.60;99.90
23405;DHT22;11875;49.356;2.718;2023-03-04T12:32:09;7.70;99.90
23405;DHT22;11875;49.356;2.718;2023-03-04T12:35:02;7.90;99.90
23405;DHT22;11875;49.356;2.718;2023-03-04T12:44:02;8.00;99.90
23405;DHT22;11875;49.356;2.718;2023-03-04T12:54:33;7.40;99.90
23405;DHT22;11875;49.356;2.718;2023-03-04T12:59:36;7.60;99.90
23405;DHT22;11875;49.356;2.718;2023-03-04T13:02:28;7.60;99.90
23405;DHT22;11875;49.356;2.718;2023-03-04T13:08:07;7.70;99.90
23405;DHT22;11875;49.356;2.718;2023-03-04T13:10:35;8.30;99.90
23405;DHT22;11875;49.356;2.718;2023-03-04T13:13:01;7.70;99.90
23405;DHT22;11875;49.356;2.718;2023-03-04T13:15:34;7.70;99.90
23405;DHT22;11875;49.356;2.718;2023-03-04T13:20:40;7.80;99.90
23405;DHT22;11875;49.356;2.718;2023-03-04T13:25:41;7.60;99.90
23405;DHT22;11875;49.356;2.718;2023-03-04T13:43:58;8.00;99.90
23405;DHT22;11875;49.356;2.718;2023-03-04T13:51:29;7.80;99.90
23405;DHT22;11875;49.356;2.718;2023-03-04T13:56:32;7.80;99.90
23405;DHT22;11875;49.356;2.718;2023-03-04T13:59:13;7.90;99.90
23405;DHT22;11875;49.356;2.718;2023-03-04T14:06:50;8.00;99.90
23405;DHT22;11875;49.356;2.718;2023-03-04T14:09:21;8.00;99.90
23405;DHT22;11875;49.356;2.718;2023-03-04T14:11:48;7.90;99.90
23405;DHT22;11875;49.356;2.718;2023-03-04T14:14:19;8.00;99.90
23405;DHT22;11875;49.356;2.718;2023-03-04T14:16:50;7.80;99.90
23405;DHT22;11875;49.356;2.718;2023-03-04T14:21:55;8.00;99.90
23405;DHT22;11875;49.356;2.718;2023-03-04T14:24:22;7.80;99.90
23405;DHT22;11875;49.356;2.718;2023-03-04T14:26:48;7.90;99.90
23405;DHT22;11875;49.356;2.718;2023-03-04T14:29:25;8.00;99.90
23405;DHT22;11875;49.356;2.718;2023-03-04T14:31:51;8.00;99.90
23405;DHT22;11875;49.356;2.718;2023-03-04T14:34:31;8.10;99.90
23405;DHT22;11875;49.356;2.718;2023-03-04T14:36:58;8.20;99.90
23405;DHT22;11875;49.356;2.718;2023-03-04T14:39:26;8.20;99.90
23405;DHT22;11875;49.356;2.718;2023-03-04T14:41:55;8.30;99.90
23405;DHT22;11875;49.356;2.718;2023-03-04T14:47:14;8.10;99.90
23405;DHT22;11875;49.356;2.718;2023-03-04T14:49:42;7.90;99.90
23405;DHT22;11875;49.356;2.718;2023-03-04T14:52:41;7.90;99.90
23405;DHT22;11875;49.356;2.718;2023-03-04T14:57:46;8.50;99.90
23405;DHT22;11875;49.356;2.718;2023-03-04T15:02:50;8.10;99.90
23405;DHT22;11875;49.356;2.718;2023-03-04T15:05:25;8.10;99.90
23405;DHT22;11875;49.356;2.718;2023-03-04T15:07:56;8.10;99.90
23405;DHT22;11875;49.356;2.718;2023-03-04T15:10:26;8.10;99.90
23405;DHT22;11875;49.356;2.718;2023-03-04T15:12:54;8.10;99.90
23405;DHT22;11875;49.356;2.718;2023-03-04T15:15:31;8.80;99.90
23405;DHT22;11875;49.356;2.718;2023-03-04T15:18:02;8.10;99.90
23405;DHT22;11875;49.356;2.718;2023-03-04T15:20:30;8.20;99.90
23405;DHT22;11875;49.356;2.718;2023-03-04T15:22:59;8.30;99.90
23405;DHT22;11875;49.356;2.718;2023-03-04T15:25:25;8.40;99.90
23405;DHT22;11875;49.356;2.718;2023-03-04T15:27:51;8.40;99.90
23405;DHT22;11875;49.356;2.718;2023-03-04T15:30:25;8.50;99.90
23405;DHT22;11875;49.356;2.718;2023-03-04T15:32:52;8.50;99.90
23405;DHT22;11875;49.356;2.718;2023-03-04T15:35:19;8.50;99.90
23405;DHT22;11875;49.356;2.718;2023-03-04T15:37:45;8.40;99.90
23405;DHT22;11875;49.356;2.718;2023-03-04T15:40:17;8.50;99.90
23405;DHT22;11875;49.356;2.718;2023-03-04T15:42:44;8.50;99.90
23405;DHT22;11875;49.356;2.718;2023-03-04T15:45:30;8.50;99.90
23405;DHT22;11875;49.356;2.718;2023-03-04T15:48:00;8.50;99.90
23405;DHT22;11875;49.356;2.718;2023-03-04T15:50:29;8.50;99.90
23405;DHT22;11875;49.356;2.718;2023-03-04T15:53:00;8.60;99.90
23405;DHT22;11875;49.356;2.718;2023-03-04T15:55:27;8.60;99.90
23405;DHT22;11875;49.356;2.718;2023-03-04T15:57:55;8.50;99.90
23405;DHT22;11875;49.356;2.718;2023-03-04T16:00:22;8.50;99.90
23405;DHT22;11875;49.356;2.718;2023-03-04T16:02:48;8.40;99.90
23405;DHT22;11875;49.356;2.718;2023-03-04T16:05:14;8.40;99.90
23405;DHT22;11875;49.356;2.718;2023-03-04T16:07:43;8.50;99.90
23405;DHT22;11875;49.356;2.718;2023-03-04T16:10:28;8.40;99.90
23405;DHT22;11875;49.356;2.718;2023-03-04T16:12:58;8.40;99.90
23405;DHT22;11875;49.356;2.718;2023-03-04T16:15:29;8.40;99.90
23405;DHT22;11875;49.356;2.718;2023-03-04T16:17:55;8.40;99.90
23405;DHT22;11875;49.356;2.718;2023-03-04T16:20:23;8.50;99.90
23405;DHT22;11875;49.356;2.718;2023-03-04T16:22:54;8.50;99.90
23405;DHT22;11875;49.356;2.718;2023-03-04T16:25:20;8.50;99.90
23405;DHT22;11875;49.356;2.718;2023-03-04T16:27:47;8.50;99.90
23405;DHT22;11875;49.356;2.718;2023-03-04T16:30:15;8.40;99.90
23405;DHT22;11875;49.356;2.718;2023-03-04T16:32:41;8.30;99.90
23405;DHT22;11875;49.356;2.718;2023-03-04T16:35:07;8.30;99.90
23405;DHT22;11875;49.356;2.718;2023-03-04T16:37:33;8.30;99.90
23405;DHT22;11875;49.356;2.718;2023-03-04T16:39:59;8.30;99.90
23405;DHT22;11875;49.356;2.718;2023-03-04T16:42:24;8.40;99.90
23405;DHT22;11875;49.356;2.718;2023-03-04T16:44:52;8.50;99.90
23405;DHT22;11875;49.356;2.718;2023-03-04T16:47:18;8.40;99.90
23405;DHT22;11875;49.356;2.718;2023-03-04T16:49:46;8.40;99.90
23405;DHT22;11875;49.356;2.718;2023-03-04T16:52:25;8.30;99.90
23405;DHT22;11875;49.356;2.718;2023-03-04T16:54:52;8.40;99.90
23405;DHT22;11875;49.356;2.718;2023-03-04T16:57:18;8.50;99.90
23405;DHT22;11875;49.356;2.718;2023-03-04T16:59:44;8.40;99.90
23405;DHT22;11875;49.356;2.718;2023-03-04T17:02:19;8.30;99.90
23405;DHT22;11875;49.356;2.718;2023-03-04T17:04:46;8.40;99.90
23405;DHT22;11875;49.356;2.718;2023-03-04T17:07:12;8.40;99.90
23405;DHT22;11875;49.356;2.718;2023-03-04T17:09:39;8.40;99.90
23405;DHT22;11875;49.356;2.718;2023-03-04T17:12:08;8.40;99.90
23405;DHT22;11875;49.356;2.718;2023-03-04T17:14:35;8.30;99.90
23405;DHT22;11875;49.356;2.718;2023-03-04T17:17:02;8.40;99.90
23405;DHT22;11875;49.356;2.718;2023-03-04T17:19:28;8.50;99.90
23405;DHT22;11875;49.356;2.718;2023-03-04T17:21:58;8.60;99.90
23405;DHT22;11875;49.356;2.718;2023-03-04T17:24:24;8.50;99.90
23405;DHT22;11875;49.356;2.718;2023-03-04T17:26:50;8.60;99.90
23405;DHT22;11875;49.356;2.718;2023-03-04T17:29:16;8.70;99.90
23405;DHT22;11875;49.356;2.718;2023-03-04T17:31:41;8.60;99.90
23405;DHT22;11875;49.356;2.718;2023-03-04T17:34:07;8.70;99.90
23405;DHT22;11875;49.356;2.718;2023-03-04T17:36:33;8.70;99.90
23405;DHT22;11875;49.356;2.718;2023-03-04T17:38:59;8.60;99.90
23405;DHT22;11875;49.356;2.718;2023-03-04T17:41:25;8.70;99.90
23405;DHT22;11875;49.356;2.718;2023-03-04T17:43:51;8.70;99.90
23405;DHT22;11875;49.356;2.718;2023-03-04T17:46:20;8.60;99.90
23405;DHT22;11875;49.356;2.718;2023-03-04T17:48:47;8.70;99.90
23405;DHT22;11875;49.356;2.718;2023-03-04T17:51:13;8.60;99.90
23405;DHT22;11875;49.356;2.718;2023-03-04T17:53:39;8.60;99.90
23405;DHT22;11875;49.356;2.718;2023-03-04T17:56:06;8.70;99.90